sensor_id;sensor_type;location;lat;lon;timestamp;P1;durP1;ratioP1;P2;durP2;ratioP2
8881;SDS011;4477;48.736;9.176;2022-07-17T00:01:36;5.90;;;5.30;;
8881;SDS011;4477;48.736;9.176;2022-07-17T00:04:03;5.17;;;4.67;;
8881;SDS011;4477;48.736;9.176;2022-07-17T00:06:30;5.90;;;4.80;;
8881;SDS011;4477;48.736;9.176;2022-07-17T00:08:57;5.83;;;4.83;;
8881;SDS011;4477;48.736;9.176;2022-07-17T00:11:24;5.47;;;4.93;;
8881;SDS011;4477;48.736;9.176;2022-07-17T00:13:51;6.97;;;4.60;;
8881;SDS011;4477;48.736;9.176;2022-07-17T00:16:20;4.90;;;4.40;;
8881;SDS011;4477;48.736;9.176;2022-07-17T00:18:47;5.90;;;4.43;;
8881;SDS011;4477;48.736;9.176;2022-07-17T00:21:14;6.07;;;4.97;;
8881;SDS011;4477;48.736;9.176;2022-07-17T00:23:41;5.30;;;4.80;;
8881;SDS011;4477;48.736;9.176;2022-07-17T00:26:08;5.00;;;4.50;;
8881;SDS011;4477;48.736;9.176;2022-07-17T00:28:35;5.43;;;4.80;;
8881;SDS011;4477;48.736;9.176;2022-07-17T00:31:03;5.63;;;4.70;;
8881;SDS011;4477;48.736;9.176;2022-07-17T00:33:32;5.67;;;5.03;;
8881;SDS011;4477;48.736;9.176;2022-07-17T00:35:59;5.80;;;4.80;;
8881;SDS011;4477;48.736;9.176;2022-07-17T00:38:26;7.30;;;5.00;;
8881;SDS011;4477;48.736;9.176;2022-07-17T00:40:53;5.77;;;4.57;;
8881;SDS011;4477;48.736;9.176;2022-07-17T00:43:21;5.97;;;4.70;;
8881;SDS011;4477;48.736;9.176;2022-07-17T00:45:53;5.80;;;5.23;;
8881;SDS011;4477;48.736;9.176;2022-07-17T00:48:21;7.60;;;5.20;;
8881;SDS011;4477;48.736;9.176;2022-07-17T00:50:50;6.47;;;4.73;;
8881;SDS011;4477;48.736;9.176;2022-07-17T00:53:17;4.87;;;4.40;;
8881;SDS011;4477;48.736;9.176;2022-07-17T00:55:45;6.03;;;4.80;;
8881;SDS011;4477;48.736;9.176;2022-07-17T00:58:13;5.43;;;4.40;;
8881;SDS011;4477;48.736;9.176;2022-07-17T01:00:43;4.83;;;4.37;;
8881;SDS011;4477;48.736;9.176;2022-07-17T01:03:11;6.53;;;4.70;;
8881;SDS011;4477;48.736;9.176;2022-07-17T01:05:39;4.93;;;4.50;;
8881;SDS011;4477;48.736;9.176;2022-07-17T01:08:08;6.63;;;3.90;;
8881;SDS011;4477;48.736;9.176;2022-07-17T01:10:36;4.70;;;4.20;;
8881;SDS011;4477;48.736;9.176;2022-07-17T01:13:03;5.60;;;4.90;;
8881;SDS011;4477;48.736;9.176;2022-07-17T01:15:30;5.17;;;4.67;;
8881;SDS011;4477;48.736;9.176;2022-07-17T01:17:58;5.30;;;4.83;;
8881;SDS011;4477;48.736;9.176;2022-07-17T01:20:26;5.60;;;4.57;;
8881;SDS011;4477;48.736;9.176;2022-07-17T01:22:54;5.27;;;4.87;;
8881;SDS011;4477;48.736;9.176;2022-07-17T01:25:23;8.23;;;4.67;;
8881;SDS011;4477;48.736;9.176;2022-07-17T01:27:50;5.27;;;4.80;;
8881;SDS011;4477;48.736;9.176;2022-07-17T01:30:18;5.30;;;4.80;;
8881;SDS011;4477;48.736;9.176;2022-07-17T01:32:45;5.27;;;4.50;;
8881;SDS011;4477;48.736;9.176;2022-07-17T01:35:13;5.50;;;4.97;;
8881;SDS011;4477;48.736;9.176;2022-07-17T01:37:41;5.23;;;4.67;;
8881;SDS011;4477;48.736;9.176;2022-07-17T01:40:10;5.17;;;4.67;;
8881;SDS011;4477;48.736;9.176;2022-07-17T01:42:41;5.43;;;4.70;;
8881;SDS011;4477;48.736;9.176;2022-07-17T01:45:09;5.37;;;4.87;;
8881;SDS011;4477;48.736;9.176;2022-07-17T01:47:37;4.90;;;4.40;;
8881;SDS011;4477;48.736;9.176;2022-07-17T01:50:04;4.93;;;4.43;;
8881;SDS011;4477;48.736;9.176;2022-07-17T01:52:34;4.30;;;3.90;;
8881;SDS011;4477;48.736;9.176;2022-07-17T01:55:02;4.73;;;4.33;;
8881;SDS011;4477;48.736;9.176;2022-07-17T01:57:31;5.83;;;4.97;;
8881;SDS011;4477;48.736;9.176;2022-07-17T01:59:58;5.23;;;4.73;;
8881;SDS011;4477;48.736;9.176;2022-07-17T02:02:26;5.47;;;4.90;;
8881;SDS011;4477;48.736;9.176;2022-07-17T02:04:53;6.13;;;5.23;;
8881;SDS011;4477;48.736;9.176;2022-07-17T02:07:21;4.97;;;4.30;;
8881;SDS011;4477;48.736;9.176;2022-07-17T02:09:48;4.83;;;4.37;;
8881;SDS011;4477;48.736;9.176;2022-07-17T02:12:16;4.93;;;4.53;;
8881;SDS011;4477;48.736;9.176;2022-07-17T02:14:44;6.57;;;4.80;;
8881;SDS011;4477;48.736;9.176;2022-07-17T02:17:11;5.70;;;4.80;;
8881;SDS011;4477;48.736;9.176;2022-07-17T02:19:38;5.57;;;5.07;;
8881;SDS011;4477;48.736;9.176;2022-07-17T02:22:05;5.33;;;4.83;;
8881;SDS011;4477;48.736;9.176;2022-07-17T02:24:32;5.93;;;5.37;;
8881;SDS011;4477;48.736;9.176;2022-07-17T02:26:58;5.90;;;5.30;;
8881;SDS011;4477;48.736;9.176;2022-07-17T02:29:25;6.47;;;5.60;;
8881;SDS011;4477;48.736;9.176;2022-07-17T02:31:53;6.57;;;5.90;;
8881;SDS011;4477;48.736;9.176;2022-07-17T02:34:20;7.80;;;6.17;;
8881;SDS011;4477;48.736;9.176;2022-07-17T02:36:47;6.20;;;5.60;;
8881;SDS011;4477;48.736;9.176;2022-07-17T02:39:14;7.00;;;5.50;;
8881;SDS011;4477;48.736;9.176;2022-07-17T02:41:41;7.60;;;6.13;;
8881;SDS011;4477;48.736;9.176;2022-07-17T02:44:08;9.27;;;5.83;;
8881;SDS011;4477;48.736;9.176;2022-07-17T02:46:35;7.40;;;6.27;;
8881;SDS011;4477;48.736;9.176;2022-07-17T02:49:03;7.37;;;5.73;;
8881;SDS011;4477;48.736;9.176;2022-07-17T02:51:31;7.90;;;5.60;;
8881;SDS011;4477;48.736;9.176;2022-07-17T02:53:58;6.63;;;6.00;;
8881;SDS011;4477;48.736;9.176;2022-07-17T02:56:25;6.87;;;6.17;;
8881;SDS011;4477;48.736;9.176;2022-07-17T02:58:51;6.67;;;5.70;;
8881;SDS011;4477;48.736;9.176;2022-07-17T03:01:18;8.07;;;5.77;;
8881;SDS011;4477;48.736;9.176;2022-07-17T03:03:45;6.33;;;5.73;;
8881;SDS011;4477;48.736;9.176;2022-07-17T03:06:13;7.33;;;6.13;;
8881;SDS011;4477;48.736;9.176;2022-07-17T03:08:40;6.53;;;5.93;;
8881;SDS011;4477;48.736;9.176;2022-07-17T03:11:07;7.33;;;6.20;;
8881;SDS011;4477;48.736;9.176;2022-07-17T03:13:34;7.10;;;6.40;;
8881;SDS011;4477;48.736;9.176;2022-07-17T03:16:01;6.97;;;5.97;;
8881;SDS011;4477;48.736;9.176;2022-07-17T03:18:27;7.03;;;6.33;;
8881;SDS011;4477;48.736;9.176;2022-07-17T03:20:54;7.97;;;6.33;;
8881;SDS011;4477;48.736;9.176;2022-07-17T03:23:22;7.77;;;6.67;;
8881;SDS011;4477;48.736;9.176;2022-07-17T03:25:49;6.73;;;6.13;;
8881;SDS011;4477;48.736;9.176;2022-07-17T03:28:16;7.47;;;6.27;;
8881;SDS011;4477;48.736;9.176;2022-07-17T03:30:43;7.23;;;6.57;;
8881;SDS011;4477;48.736;9.176;2022-07-17T03:33:10;7.43;;;6.57;;
8881;SDS011;4477;48.736;9.176;2022-07-17T03:35:37;6.93;;;6.33;;
8881;SDS011;4477;48.736;9.176;2022-07-17T03:38:04;9.03;;;6.57;;
8881;SDS011;4477;48.736;9.176;2022-07-17T03:40:32;7.80;;;6.97;;
8881;SDS011;4477;48.736;9.176;2022-07-17T03:42:59;8.60;;;7.23;;
8881;SDS011;4477;48.736;9.176;2022-07-17T03:45:25;7.10;;;6.50;;
8881;SDS011;4477;48.736;9.176;2022-07-17T03:47:53;7.93;;;7.23;;
8881;SDS011;4477;48.736;9.176;2022-07-17T03:50:19;9.00;;;8.10;;
8881;SDS011;4477;48.736;9.176;2022-07-17T03:52:46;8.03;;;7.23;;
8881;SDS011;4477;48.736;9.176;2022-07-17T03:55:13;8.53;;;7.30;;
8881;SDS011;4477;48.736;9.176;2022-07-17T03:57:41;9.00;;;7.27;;
8881;SDS011;4477;48.736;9.176;2022-07-17T04:00:08;7.77;;;6.80;;
8881;SDS011;4477;48.736;9.176;2022-07-17T04:02:36;7.87;;;7.17;;
8881;SDS011;4477;48.736;9.176;2022-07-17T04:05:03;7.60;;;7.00;;
8881;SDS011;4477;48.736;9.176;2022-07-17T04:07:34;8.13;;;7.43;;
8881;SDS011;4477;48.736;9.176;2022-07-17T04:10:01;7.73;;;6.90;;
8881;SDS011;4477;48.736;9.176;2022-07-17T04:12:28;7.00;;;6.40;;
8881;SDS011;4477;48.736;9.176;2022-07-17T04:14:56;7.23;;;6.53;;
8881;SDS011;4477;48.736;9.176;2022-07-17T04:17:23;7.10;;;6.40;;
8881;SDS011;4477;48.736;9.176;2022-07-17T04:19:51;7.37;;;6.47;;
8881;SDS011;4477;48.736;9.176;2022-07-17T04:22:18;7.73;;;7.03;;
8881;SDS011;4477;48.736;9.176;2022-07-17T04:24:45;7.87;;;7.27;;
8881;SDS011;4477;48.736;9.176;2022-07-17T04:27:12;7.57;;;6.60;;
8881;SDS011;4477;48.736;9.176;2022-07-17T04:29:39;7.40;;;6.80;;
8881;SDS011;4477;48.736;9.176;2022-07-17T04:32:08;8.33;;;6.77;;
8881;SDS011;4477;48.736;9.176;2022-07-17T04:34:35;6.77;;;6.27;;
8881;SDS011;4477;48.736;9.176;2022-07-17T04:37:03;8.30;;;7.23;;
8881;SDS011;4477;48.736;9.176;2022-07-17T04:39:30;7.60;;;6.70;;
8881;SDS011;4477;48.736;9.176;2022-07-17T04:41:57;6.90;;;6.20;;
8881;SDS011;4477;48.736;9.176;2022-07-17T04:44:24;6.00;;;5.50;;
8881;SDS011;4477;48.736;9.176;2022-07-17T04:46:50;6.30;;;5.70;;
8881;SDS011;4477;48.736;9.176;2022-07-17T04:49:19;5.87;;;5.13;;
8881;SDS011;4477;48.736;9.176;2022-07-17T04:51:45;5.23;;;4.83;;
8881;SDS011;4477;48.736;9.176;2022-07-17T04:54:12;5.00;;;4.60;;
8881;SDS011;4477;48.736;9.176;2022-07-17T04:56:39;4.53;;;4.13;;
8881;SDS011;4477;48.736;9.176;2022-07-17T04:59:06;5.37;;;4.20;;
8881;SDS011;4477;48.736;9.176;2022-07-17T05:01:33;3.83;;;3.53;;
8881;SDS011;4477;48.736;9.176;2022-07-17T05:04:00;4.17;;;3.80;;
8881;SDS011;4477;48.736;9.176;2022-07-17T05:06:29;4.13;;;3.83;;
8881;SDS011;4477;48.736;9.176;2022-07-17T05:08:56;3.70;;;3.40;;
8881;SDS011;4477;48.736;9.176;2022-07-17T05:11:23;3.77;;;3.43;;
8881;SDS011;4477;48.736;9.176;2022-07-17T05:13:50;3.63;;;3.20;;
8881;SDS011;4477;48.736;9.176;2022-07-17T05:16:17;3.90;;;3.60;;
8881;SDS011;4477;48.736;9.176;2022-07-17T05:18:44;7.37;;;5.70;;
8881;SDS011;4477;48.736;9.176;2022-07-17T05:21:11;4.47;;;4.07;;
8881;SDS011;4477;48.736;9.176;2022-07-17T05:23:40;4.90;;;4.07;;
8881;SDS011;4477;48.736;9.176;2022-07-17T05:26:08;5.00;;;4.40;;
8881;SDS011;4477;48.736;9.176;2022-07-17T05:28:35;4.97;;;4.30;;
8881;SDS011;4477;48.736;9.176;2022-07-17T05:31:02;4.50;;;4.10;;
8881;SDS011;4477;48.736;9.176;2022-07-17T05:33:29;4.60;;;3.67;;
8881;SDS011;4477;48.736;9.176;2022-07-17T05:35:56;4.93;;;3.80;;
8881;SDS011;4477;48.736;9.176;2022-07-17T05:38:24;4.22;;;3.80;;
8881;SDS011;4477;48.736;9.176;2022-07-17T05:40:52;5.45;;;3.30;;
8881;SDS011;4477;48.736;9.176;2022-07-17T05:43:19;6.13;;;3.75;;
8881;SDS011;4477;48.736;9.176;2022-07-17T05:45:47;5.47;;;3.80;;
8881;SDS011;4477;48.736;9.176;2022-07-17T05:48:14;5.55;;;3.45;;
8881;SDS011;4477;48.736;9.176;2022-07-17T05:50:40;4.15;;;3.38;;
8881;SDS011;4477;48.736;9.176;2022-07-17T05:53:07;3.65;;;3.35;;
8881;SDS011;4477;48.736;9.176;2022-07-17T05:55:34;4.95;;;3.45;;
8881;SDS011;4477;48.736;9.176;2022-07-17T05:58:02;5.07;;;3.45;;
8881;SDS011;4477;48.736;9.176;2022-07-17T06:00:29;5.67;;;3.50;;
8881;SDS011;4477;48.736;9.176;2022-07-17T06:02:56;4.72;;;3.25;;
8881;SDS011;4477;48.736;9.176;2022-07-17T06:05:23;3.28;;;2.97;;
8881;SDS011;4477;48.736;9.176;2022-07-17T06:07:51;3.93;;;3.43;;
8881;SDS011;4477;48.736;9.176;2022-07-17T06:10:18;4.03;;;3.63;;
8881;SDS011;4477;48.736;9.176;2022-07-17T06:12:45;6.00;;;3.00;;
8881;SDS011;4477;48.736;9.176;2022-07-17T06:15:13;4.83;;;3.40;;
8881;SDS011;4477;48.736;9.176;2022-07-17T06:17:40;6.53;;;3.03;;
8881;SDS011;4477;48.736;9.176;2022-07-17T06:20:08;5.30;;;3.20;;
8881;SDS011;4477;48.736;9.176;2022-07-17T06:22:35;4.73;;;2.97;;
8881;SDS011;4477;48.736;9.176;2022-07-17T06:25:03;4.03;;;2.60;;
8881;SDS011;4477;48.736;9.176;2022-07-17T06:27:30;4.33;;;2.73;;
8881;SDS011;4477;48.736;9.176;2022-07-17T06:29:57;4.33;;;3.20;;
8881;SDS011;4477;48.736;9.176;2022-07-17T06:32:25;3.03;;;2.70;;
8881;SDS011;4477;48.736;9.176;2022-07-17T06:34:52;2.90;;;2.37;;
8881;SDS011;4477;48.736;9.176;2022-07-17T06:37:19;4.53;;;3.07;;
8881;SDS011;4477;48.736;9.176;2022-07-17T06:39:46;5.53;;;3.00;;
8881;SDS011;4477;48.736;9.176;2022-07-17T06:42:13;3.20;;;2.73;;
8881;SDS011;4477;48.736;9.176;2022-07-17T06:44:40;6.00;;;2.83;;
8881;SDS011;4477;48.736;9.176;2022-07-17T06:47:06;3.93;;;3.07;;
8881;SDS011;4477;48.736;9.176;2022-07-17T06:49:35;3.67;;;3.10;;
8881;SDS011;4477;48.736;9.176;2022-07-17T06:52:03;3.40;;;2.67;;
8881;SDS011;4477;48.736;9.176;2022-07-17T06:54:30;3.40;;;2.87;;
8881;SDS011;4477;48.736;9.176;2022-07-17T06:56:57;3.50;;;2.73;;
8881;SDS011;4477;48.736;9.176;2022-07-17T06:59:24;2.90;;;2.67;;
8881;SDS011;4477;48.736;9.176;2022-07-17T07:01:51;4.33;;;2.67;;
8881;SDS011;4477;48.736;9.176;2022-07-17T07:04:18;3.53;;;3.23;;
8881;SDS011;4477;48.736;9.176;2022-07-17T07:06:46;2.93;;;2.60;;
8881;SDS011;4477;48.736;9.176;2022-07-17T07:09:13;4.13;;;2.60;;
8881;SDS011;4477;48.736;9.176;2022-07-17T07:11:40;3.97;;;2.80;;
8881;SDS011;4477;48.736;9.176;2022-07-17T07:14:07;6.63;;;2.90;;
8881;SDS011;4477;48.736;9.176;2022-07-17T07:16:34;2.83;;;2.63;;
8881;SDS011;4477;48.736;9.176;2022-07-17T07:19:02;3.13;;;2.75;;
8881;SDS011;4477;48.736;9.176;2022-07-17T07:21:29;4.50;;;2.88;;
8881;SDS011;4477;48.736;9.176;2022-07-17T07:23:57;2.88;;;2.60;;
8881;SDS011;4477;48.736;9.176;2022-07-17T07:26:24;3.40;;;2.78;;
8881;SDS011;4477;48.736;9.176;2022-07-17T07:28:52;9.40;;;2.80;;
8881;SDS011;4477;48.736;9.176;2022-07-17T07:31:19;5.00;;;2.53;;
8881;SDS011;4477;48.736;9.176;2022-07-17T07:33:46;4.13;;;2.80;;
8881;SDS011;4477;48.736;9.176;2022-07-17T07:36:13;4.18;;;2.80;;
8881;SDS011;4477;48.736;9.176;2022-07-17T07:38:40;4.22;;;2.75;;
8881;SDS011;4477;48.736;9.176;2022-07-17T07:41:08;4.35;;;2.38;;
8881;SDS011;4477;48.736;9.176;2022-07-17T07:43:35;2.72;;;2.42;;
8881;SDS011;4477;48.736;9.176;2022-07-17T07:46:03;2.85;;;2.58;;
8881;SDS011;4477;48.736;9.176;2022-07-17T07:48:30;2.83;;;2.63;;
8881;SDS011;4477;48.736;9.176;2022-07-17T07:50:57;4.03;;;2.85;;
8881;SDS011;4477;48.736;9.176;2022-07-17T07:53:24;3.78;;;2.63;;
8881;SDS011;4477;48.736;9.176;2022-07-17T07:55:50;3.47;;;2.80;;
8881;SDS011;4477;48.736;9.176;2022-07-17T07:58:19;6.00;;;3.20;;
8881;SDS011;4477;48.736;9.176;2022-07-17T08:00:46;3.33;;;3.05;;
8881;SDS011;4477;48.736;9.176;2022-07-17T08:03:13;3.42;;;2.97;;
8881;SDS011;4477;48.736;9.176;2022-07-17T08:05:40;5.38;;;3.40;;
8881;SDS011;4477;48.736;9.176;2022-07-17T08:08:07;4.43;;;3.00;;
8881;SDS011;4477;48.736;9.176;2022-07-17T08:10:34;4.05;;;2.83;;
8881;SDS011;4477;48.736;9.176;2022-07-17T08:13:01;3.97;;;2.83;;
8881;SDS011;4477;48.736;9.176;2022-07-17T08:15:30;2.95;;;2.65;;
8881;SDS011;4477;48.736;9.176;2022-07-17T08:17:57;3.33;;;2.90;;
8881;SDS011;4477;48.736;9.176;2022-07-17T08:20:24;3.90;;;3.03;;
8881;SDS011;4477;48.736;9.176;2022-07-17T08:22:51;3.33;;;2.90;;
8881;SDS011;4477;48.736;9.176;2022-07-17T08:25:18;5.20;;;2.80;;
8881;SDS011;4477;48.736;9.176;2022-07-17T08:27:45;2.55;;;2.30;;
8881;SDS011;4477;48.736;9.176;2022-07-17T08:30:12;4.43;;;2.63;;
8881;SDS011;4477;48.736;9.176;2022-07-17T08:32:41;4.38;;;2.70;;
8881;SDS011;4477;48.736;9.176;2022-07-17T08:35:09;2.72;;;2.35;;
8881;SDS011;4477;48.736;9.176;2022-07-17T08:37:43;2.70;;;2.50;;
8881;SDS011;4477;48.736;9.176;2022-07-17T08:40:16;2.58;;;2.38;;
8881;SDS011;4477;48.736;9.176;2022-07-17T08:42:44;4.88;;;2.60;;
8881;SDS011;4477;48.736;9.176;2022-07-17T08:45:11;3.50;;;2.45;;
8881;SDS011;4477;48.736;9.176;2022-07-17T08:47:38;3.47;;;1.80;;
8881;SDS011;4477;48.736;9.176;2022-07-17T08:50:08;2.65;;;2.35;;
8881;SDS011;4477;48.736;9.176;2022-07-17T08:52:37;2.53;;;2.33;;
8881;SDS011;4477;48.736;9.176;2022-07-17T08:55:07;2.38;;;2.17;;
8881;SDS011;4477;48.736;9.176;2022-07-17T08:57:36;2.20;;;2.00;;
8881;SDS011;4477;48.736;9.176;2022-07-17T09:00:05;3.55;;;1.90;;
8881;SDS011;4477;48.736;9.176;2022-07-17T09:02:35;3.05;;;1.98;;
8881;SDS011;4477;48.736;9.176;2022-07-17T09:05:02;3.40;;;2.10;;
8881;SDS011;4477;48.736;9.176;2022-07-17T09:07:31;4.20;;;2.00;;
8881;SDS011;4477;48.736;9.176;2022-07-17T09:09:59;2.58;;;2.35;;
8881;SDS011;4477;48.736;9.176;2022-07-17T09:12:26;2.70;;;2.03;;
8881;SDS011;4477;48.736;9.176;2022-07-17T09:14:54;3.13;;;2.13;;
8881;SDS011;4477;48.736;9.176;2022-07-17T09:17:22;2.92;;;1.90;;
8881;SDS011;4477;48.736;9.176;2022-07-17T09:19:52;4.13;;;2.05;;
8881;SDS011;4477;48.736;9.176;2022-07-17T09:22:20;2.25;;;1.83;;
8881;SDS011;4477;48.736;9.176;2022-07-17T09:24:51;2.22;;;1.80;;
8881;SDS011;4477;48.736;9.176;2022-07-17T09:27:28;3.15;;;1.80;;
8881;SDS011;4477;48.736;9.176;2022-07-17T09:29:58;2.50;;;2.13;;
8881;SDS011;4477;48.736;9.176;2022-07-17T09:32:27;2.75;;;2.00;;
8881;SDS011;4477;48.736;9.176;2022-07-17T09:34:56;3.45;;;2.00;;
8881;SDS011;4477;48.736;9.176;2022-07-17T09:37:24;2.50;;;1.52;;
8881;SDS011;4477;48.736;9.176;2022-07-17T09:39:53;2.88;;;1.55;;
8881;SDS011;4477;48.736;9.176;2022-07-17T09:42:24;4.90;;;1.63;;
8881;SDS011;4477;48.736;9.176;2022-07-17T09:44:58;2.53;;;1.70;;
8881;SDS011;4477;48.736;9.176;2022-07-17T09:47:27;1.63;;;1.50;;
8881;SDS011;4477;48.736;9.176;2022-07-17T09:49:56;2.75;;;1.58;;
8881;SDS011;4477;48.736;9.176;2022-07-17T09:52:24;3.03;;;1.65;;
8881;SDS011;4477;48.736;9.176;2022-07-17T09:54:54;1.98;;;1.77;;
8881;SDS011;4477;48.736;9.176;2022-07-17T09:57:21;1.60;;;1.50;;
8881;SDS011;4477;48.736;9.176;2022-07-17T09:59:52;1.95;;;1.75;;
8881;SDS011;4477;48.736;9.176;2022-07-17T10:02:21;1.50;;;1.30;;
8881;SDS011;4477;48.736;9.176;2022-07-17T10:04:50;1.52;;;1.40;;
8881;SDS011;4477;48.736;9.176;2022-07-17T10:07:17;2.85;;;1.60;;
8881;SDS011;4477;48.736;9.176;2022-07-17T10:09:44;2.17;;;1.40;;
8881;SDS011;4477;48.736;9.176;2022-07-17T10:12:13;3.80;;;1.50;;
8881;SDS011;4477;48.736;9.176;2022-07-17T10:14:40;1.92;;;1.42;;
8881;SDS011;4477;48.736;9.176;2022-07-17T10:17:08;2.58;;;1.77;;
8881;SDS011;4477;48.736;9.176;2022-07-17T10:19:43;3.58;;;1.60;;
8881;SDS011;4477;48.736;9.176;2022-07-17T10:22:12;2.80;;;1.50;;
8881;SDS011;4477;48.736;9.176;2022-07-17T10:24:44;1.42;;;1.13;;
8881;SDS011;4477;48.736;9.176;2022-07-17T10:27:18;2.22;;;1.52;;
8881;SDS011;4477;48.736;9.176;2022-07-17T10:29:47;1.63;;;1.38;;
8881;SDS011;4477;48.736;9.176;2022-07-17T10:32:24;1.45;;;1.33;;
8881;SDS011;4477;48.736;9.176;2022-07-17T10:34:52;1.33;;;1.23;;
8881;SDS011;4477;48.736;9.176;2022-07-17T10:37:24;2.35;;;1.67;;
8881;SDS011;4477;48.736;9.176;2022-07-17T10:39:56;1.50;;;1.38;;
8881;SDS011;4477;48.736;9.176;2022-07-17T10:42:41;1.48;;;1.30;;
8881;SDS011;4477;48.736;9.176;2022-07-17T10:45:11;3.53;;;1.50;;
8881;SDS011;4477;48.736;9.176;2022-07-17T10:47:46;1.33;;;1.23;;
8881;SDS011;4477;48.736;9.176;2022-07-17T10:50:16;1.80;;;1.48;;
8881;SDS011;4477;48.736;9.176;2022-07-17T10:52:55;2.50;;;1.30;;
8881;SDS011;4477;48.736;9.176;2022-07-17T10:55:38;2.47;;;1.30;;
8881;SDS011;4477;48.736;9.176;2022-07-17T10:58:21;1.38;;;1.25;;
8881;SDS011;4477;48.736;9.176;2022-07-17T11:00:57;1.88;;;1.33;;
8881;SDS011;4477;48.736;9.176;2022-07-17T11:03:24;1.30;;;1.20;;
8881;SDS011;4477;48.736;9.176;2022-07-17T11:05:51;1.92;;;1.42;;
8881;SDS011;4477;48.736;9.176;2022-07-17T11:08:18;1.70;;;1.60;;
8881;SDS011;4477;48.736;9.176;2022-07-17T11:10:45;2.88;;;1.48;;
8881;SDS011;4477;48.736;9.176;2022-07-17T11:13:13;1.85;;;1.42;;
8881;SDS011;4477;48.736;9.176;2022-07-17T11:15:43;2.33;;;1.45;;
8881;SDS011;4477;48.736;9.176;2022-07-17T11:18:12;1.70;;;1.20;;
8881;SDS011;4477;48.736;9.176;2022-07-17T11:20:50;1.50;;;1.40;;
8881;SDS011;4477;48.736;9.176;2022-07-17T11:23:19;1.88;;;1.30;;
8881;SDS011;4477;48.736;9.176;2022-07-17T11:25:51;3.53;;;1.40;;
8881;SDS011;4477;48.736;9.176;2022-07-17T11:28:26;1.48;;;1.38;;
8881;SDS011;4477;48.736;9.176;2022-07-17T11:30:58;2.83;;;1.33;;
8881;SDS011;4477;48.736;9.176;2022-07-17T11:33:25;1.90;;;1.70;;
8881;SDS011;4477;48.736;9.176;2022-07-17T11:35:52;2.13;;;1.40;;
8881;SDS011;4477;48.736;9.176;2022-07-17T11:38:23;1.65;;;1.30;;
8881;SDS011;4477;48.736;9.176;2022-07-17T11:40:51;3.50;;;1.40;;
8881;SDS011;4477;48.736;9.176;2022-07-17T11:43:18;4.40;;;1.73;;
8881;SDS011;4477;48.736;9.176;2022-07-17T11:45:45;1.38;;;1.17;;
8881;SDS011;4477;48.736;9.176;2022-07-17T11:48:14;1.52;;;1.33;;
8881;SDS011;4477;48.736;9.176;2022-07-17T11:50:41;2.95;;;1.30;;
8881;SDS011;4477;48.736;9.176;2022-07-17T11:53:18;5.75;;;1.63;;
8881;SDS011;4477;48.736;9.176;2022-07-17T11:55:45;1.33;;;1.23;;
8881;SDS011;4477;48.736;9.176;2022-07-17T11:58:12;1.85;;;1.50;;
8881;SDS011;4477;48.736;9.176;2022-07-17T12:00:39;2.05;;;1.70;;
8881;SDS011;4477;48.736;9.176;2022-07-17T12:03:07;2.10;;;1.48;;
8881;SDS011;4477;48.736;9.176;2022-07-17T12:05:36;1.15;;;1.13;;
8881;SDS011;4477;48.736;9.176;2022-07-17T12:08:03;4.00;;;1.40;;
8881;SDS011;4477;48.736;9.176;2022-07-17T12:10:34;1.88;;;1.45;;
8881;SDS011;4477;48.736;9.176;2022-07-17T12:13:01;2.08;;;1.35;;
8881;SDS011;4477;48.736;9.176;2022-07-17T12:15:34;2.08;;;1.23;;
8881;SDS011;4477;48.736;9.176;2022-07-17T12:18:02;2.00;;;1.38;;
8881;SDS011;4477;48.736;9.176;2022-07-17T12:20:41;1.85;;;1.30;;
8881;SDS011;4477;48.736;9.176;2022-07-17T12:23:09;1.30;;;1.20;;
8881;SDS011;4477;48.736;9.176;2022-07-17T12:25:51;2.25;;;1.40;;
8881;SDS011;4477;48.736;9.176;2022-07-17T12:28:28;2.85;;;1.60;;
8881;SDS011;4477;48.736;9.176;2022-07-17T12:30:55;1.65;;;1.42;;
8881;SDS011;4477;48.736;9.176;2022-07-17T12:33:22;1.83;;;1.40;;
8881;SDS011;4477;48.736;9.176;2022-07-17T12:35:50;2.55;;;1.40;;
8881;SDS011;4477;48.736;9.176;2022-07-17T12:38:17;1.95;;;1.42;;
8881;SDS011;4477;48.736;9.176;2022-07-17T12:40:44;3.63;;;1.48;;
8881;SDS011;4477;48.736;9.176;2022-07-17T12:43:11;2.28;;;1.60;;
8881;SDS011;4477;48.736;9.176;2022-07-17T12:45:38;2.28;;;1.40;;
8881;SDS011;4477;48.736;9.176;2022-07-17T12:48:06;1.75;;;1.40;;
8881;SDS011;4477;48.736;9.176;2022-07-17T12:50:32;3.28;;;1.48;;
8881;SDS011;4477;48.736;9.176;2022-07-17T12:53:01;1.77;;;1.40;;
8881;SDS011;4477;48.736;9.176;2022-07-17T12:55:27;2.03;;;1.67;;
8881;SDS011;4477;48.736;9.176;2022-07-17T12:57:54;2.10;;;1.10;;
8881;SDS011;4477;48.736;9.176;2022-07-17T13:00:21;2.00;;;1.40;;
8881;SDS011;4477;48.736;9.176;2022-07-17T13:02:48;2.25;;;1.52;;
8881;SDS011;4477;48.736;9.176;2022-07-17T13:05:15;2.42;;;1.40;;
8881;SDS011;4477;48.736;9.176;2022-07-17T13:07:43;1.58;;;1.23;;
8881;SDS011;4477;48.736;9.176;2022-07-17T13:10:11;1.42;;;1.33;;
8881;SDS011;4477;48.736;9.176;2022-07-17T13:12:38;1.73;;;1.33;;
8881;SDS011;4477;48.736;9.176;2022-07-17T13:15:05;1.52;;;1.23;;
8881;SDS011;4477;48.736;9.176;2022-07-17T13:17:34;1.67;;;1.58;;
8881;SDS011;4477;48.736;9.176;2022-07-17T13:20:16;1.35;;;1.25;;
8881;SDS011;4477;48.736;9.176;2022-07-17T13:23:00;2.25;;;1.20;;
8881;SDS011;4477;48.736;9.176;2022-07-17T13:26:08;2.38;;;1.40;;
8881;SDS011;4477;48.736;9.176;2022-07-17T13:28:37;1.73;;;1.63;;
8881;SDS011;4477;48.736;9.176;2022-07-17T13:31:05;1.35;;;1.20;;
8881;SDS011;4477;48.736;9.176;2022-07-17T13:33:34;1.48;;;1.20;;
8881;SDS011;4477;48.736;9.176;2022-07-17T13:36:08;2.38;;;1.38;;
8881;SDS011;4477;48.736;9.176;2022-07-17T13:38:36;2.15;;;1.35;;
8881;SDS011;4477;48.736;9.176;2022-07-17T13:41:14;1.42;;;1.25;;
8881;SDS011;4477;48.736;9.176;2022-07-17T13:43:58;2.45;;;1.50;;
8881;SDS011;4477;48.736;9.176;2022-07-17T13:46:46;3.67;;;1.50;;
8881;SDS011;4477;48.736;9.176;2022-07-17T13:49:13;1.73;;;1.27;;
8881;SDS011;4477;48.736;9.176;2022-07-17T13:51:53;1.27;;;1.00;;
8881;SDS011;4477;48.736;9.176;2022-07-17T13:54:20;4.20;;;1.60;;
8881;SDS011;4477;48.736;9.176;2022-07-17T14:03:12;2.28;;;1.20;;
8881;SDS011;4477;48.736;9.176;2022-07-17T14:06:01;1.10;;;1.00;;
8881;SDS011;4477;48.736;9.176;2022-07-17T14:08:31;1.60;;;1.20;;
8881;SDS011;4477;48.736;9.176;2022-07-17T14:10:58;1.30;;;1.20;;
8881;SDS011;4477;48.736;9.176;2022-07-17T14:13:29;1.38;;;1.20;;
8881;SDS011;4477;48.736;9.176;2022-07-17T14:16:11;2.85;;;1.40;;
8881;SDS011;4477;48.736;9.176;2022-07-17T14:18:38;1.38;;;1.27;;
8881;SDS011;4477;48.736;9.176;2022-07-17T14:21:23;3.00;;;1.27;;
8881;SDS011;4477;48.736;9.176;2022-07-17T14:23:50;2.17;;;1.20;;
8881;SDS011;4477;48.736;9.176;2022-07-17T14:26:18;1.25;;;1.15;;
8881;SDS011;4477;48.736;9.176;2022-07-17T14:28:45;1.33;;;1.02;;
8881;SDS011;4477;48.736;9.176;2022-07-17T14:31:16;4.25;;;1.17;;
8881;SDS011;4477;48.736;9.176;2022-07-17T14:33:49;2.13;;;1.15;;
8881;SDS011;4477;48.736;9.176;2022-07-17T14:36:27;1.23;;;0.95;;
8881;SDS011;4477;48.736;9.176;2022-07-17T14:39:11;1.35;;;1.20;;
8881;SDS011;4477;48.736;9.176;2022-07-17T14:41:38;1.30;;;1.20;;
8881;SDS011;4477;48.736;9.176;2022-07-17T14:44:21;1.30;;;1.20;;
8881;SDS011;4477;48.736;9.176;2022-07-17T14:46:49;1.80;;;1.13;;
8881;SDS011;4477;48.736;9.176;2022-07-17T14:49:17;1.40;;;1.30;;
8881;SDS011;4477;48.736;9.176;2022-07-17T14:51:45;2.20;;;1.25;;
8881;SDS011;4477;48.736;9.176;2022-07-17T14:54:12;1.50;;;1.30;;
8881;SDS011;4477;48.736;9.176;2022-07-17T14:56:55;1.50;;;1.10;;
8881;SDS011;4477;48.736;9.176;2022-07-17T14:59:33;3.75;;;1.10;;
8881;SDS011;4477;48.736;9.176;2022-07-17T15:02:17;2.92;;;1.30;;
8881;SDS011;4477;48.736;9.176;2022-07-17T15:04:46;1.58;;;1.48;;
8881;SDS011;4477;48.736;9.176;2022-07-17T15:07:13;1.60;;;1.50;;
8881;SDS011;4477;48.736;9.176;2022-07-17T15:09:40;1.30;;;1.20;;
8881;SDS011;4477;48.736;9.176;2022-07-17T15:12:07;2.10;;;1.25;;
8881;SDS011;4477;48.736;9.176;2022-07-17T15:14:41;2.00;;;1.30;;
8881;SDS011;4477;48.736;9.176;2022-07-17T15:17:11;1.85;;;1.30;;
8881;SDS011;4477;48.736;9.176;2022-07-17T15:19:40;1.80;;;0.90;;
8881;SDS011;4477;48.736;9.176;2022-07-17T15:22:07;1.83;;;1.30;;
8881;SDS011;4477;48.736;9.176;2022-07-17T15:24:34;1.40;;;1.30;;
8881;SDS011;4477;48.736;9.176;2022-07-17T15:27:12;2.42;;;1.20;;
8881;SDS011;4477;48.736;9.176;2022-07-17T15:29:51;1.98;;;1.20;;
8881;SDS011;4477;48.736;9.176;2022-07-17T15:32:34;1.30;;;1.20;;